Time;durP1;ratioP1;P1;durP2;ratioP2;P2;SDS_P1;SDS_P2;PMS_P1;PMS_P2;Temp;Humidity;BMP_temperature;BMP_pressure;BME280_temperature;BME280_humidity;BME280_pressure;Samples;Min_cycle;Max_cycle;Signal;HPM_P1;HPM_P2
2022/01/05 00:00:18;;;;;;;11.70;1.95;;;;;;;3.23;68.77;100197.41;5045593;28;20460;-65
2022/01/05 00:02:43;;;;;;;18.15;2.55;;;;;;;3.25;68.63;100197.38;5046235;28;20029;-66
2022/01/05 00:05:09;;;;;;;16.02;2.13;;;;;;;3.27;67.07;100193.88;5044591;28;20028;-66
2022/01/05 00:07:35;;;;;;;20.55;2.45;;;;;;;3.33;66.91;100189.44;5046125;28;20131;-66
2022/01/05 00:10:00;;;;;;;10.75;2.15;;;;;;;3.35;67.06;100185.94;5040851;28;20502;-65
2022/01/05 00:12:25;;;;;;;8.50;2.67;;;;;;;3.29;67.26;100193.84;5040338;28;20079;-65
2022/01/05 00:14:51;;;;;;;6.97;1.42;;;;;;;3.24;66.76;100200.84;5062025;28;20033;-66
2022/01/05 00:17:16;;;;;;;6.25;1.50;;;;;;;3.23;66.65;100194.78;5069228;28;20073;-67
2022/01/05 00:19:43;;;;;;;14.15;2.22;;;;;;;3.21;66.15;100196.56;5039642;28;20064;-65
2022/01/05 00:22:09;;;;;;;12.35;1.77;;;;;;;3.24;65.50;100199.13;5032436;28;20033;-66
2022/01/05 00:24:36;;;;;;;13.13;2.13;;;;;;;3.33;65.25;100197.25;5039602;28;20087;-65
2022/01/05 00:27:01;;;;;;;10.52;1.90;;;;;;;3.39;64.85;100190.22;5030601;28;20021;-68
2022/01/05 00:29:26;;;;;;;13.30;2.15;;;;;;;3.42;65.63;100199.72;5019315;28;20326;-67
2022/01/05 00:31:52;;;;;;;11.95;1.70;;;;;;;3.41;65.94;100198.84;5028938;28;20025;-66
2022/01/05 00:34:17;;;;;;;11.00;2.53;;;;;;;3.37;65.97;100215.41;5043481;28;20029;-65
2022/01/05 00:36:42;;;;;;;10.63;2.38;;;;;;;3.39;65.81;100204.97;5035535;28;20025;-65
2022/01/05 00:39:08;;;;;;;16.95;2.13;;;;;;;3.40;65.73;100191.06;5027644;28;20432;-65
2022/01/05 00:41:33;;;;;;;10.48;2.10;;;;;;;3.39;66.23;100207.59;5039355;28;20052;-66
2022/01/05 00:43:58;;;;;;;9.25;1.83;;;;;;;3.32;66.82;100200.75;5035995;28;20031;-67
2022/01/05 00:46:24;;;;;;;10.35;1.73;;;;;;;3.22;66.75;100193.06;5059182;28;20115;-66
2022/01/05 00:48:49;;;;;;;10.23;2.10;;;;;;;3.12;67.37;100187.13;5067485;28;20100;-66
2022/01/05 00:51:15;;;;;;;10.60;2.15;;;;;;;3.01;68.02;100189.03;5039843;28;20133;-66
2022/01/05 00:53:41;;;;;;;12.40;1.92;;;;;;;3.00;66.96;100206.38;5036972;28;20096;-66
2022/01/05 00:56:06;;;;;;;13.93;2.28;;;;;;;3.01;65.47;100195.06;5027504;28;20031;-66
2022/01/05 00:58:32;;;;;;;8.18;1.85;;;;;;;3.02;65.28;100199.41;5031403;28;20076;-65
2022/01/05 01:00:57;;;;;;;14.40;2.33;;;;;;;2.95;65.46;100200.34;5035997;28;20034;-67
2022/01/05 01:03:23;;;;;;;13.75;2.80;;;;;;;2.95;65.38;100205.53;5039278;28;20423;-68
2022/01/05 01:05:48;;;;;;;12.38;2.00;;;;;;;2.93;65.06;100198.66;5068508;28;20012;-67
2022/01/05 01:08:13;;;;;;;11.55;1.92;;;;;;;2.90;65.35;100202.16;5068277;28;20025;-68
2022/01/05 01:10:39;;;;;;;20.20;2.05;;;;;;;2.91;65.34;100206.47;5057294;28;20080;-67
2022/01/05 01:13:05;;;;;;;17.33;2.90;;;;;;;2.88;65.10;100209.13;5034434;28;20407;-65
2022/01/05 01:15:30;;;;;;;11.57;1.95;;;;;;;2.86;64.63;100201.31;5028461;28;20036;-66
2022/01/05 01:17:55;;;;;;;10.30;1.98;;;;;;;2.87;63.95;100208.28;5026999;28;20025;-66
2022/01/05 01:20:21;;;;;;;20.95;3.10;;;;;;;2.87;64.49;100208.28;5010661;28;20124;-67
2022/01/05 01:22:48;;;;;;;11.85;1.95;;;;;;;2.84;64.44;100213.50;5038090;28;20082;-66
2022/01/05 01:25:13;;;;;;;13.60;1.83;;;;;;;2.77;64.70;100207.50;5010576;28;20025;-66
2022/01/05 01:27:42;;;;;;;10.40;1.83;;;;;;;2.73;64.98;100211.03;5026817;28;20025;-67
2022/01/05 01:30:09;;;;;;;7.07;1.65;;;;;;;2.74;64.96;100217.94;5028250;28;20028;-68
2022/01/05 01:32:34;;;;;;;15.70;2.35;;;;;;;2.69;64.89;100230.16;5047665;28;20033;-66
2022/01/05 01:35:00;;;;;;;16.02;2.60;;;;;;;2.75;64.82;100209.28;5047164;28;20476;-67
2022/01/05 01:37:25;;;;;;;15.07;2.10;;;;;;;2.74;64.88;100210.13;5047678;28;20376;-67
2022/01/05 01:39:50;;;;;;;12.02;2.40;;;;;;;2.82;64.59;100211.78;5053595;28;20028;-67
2022/01/05 01:42:16;;;;;;;13.30;2.15;;;;;;;2.78;64.58;100214.44;5049408;28;20033;-66
2022/01/05 01:44:41;;;;;;;7.68;2.15;;;;;;;2.78;64.87;100213.56;5033915;28;20468;-66
2022/01/05 01:47:06;;;;;;;19.20;2.92;;;;;;;2.75;65.14;100209.28;5027627;28;20040;-68
2022/01/05 01:49:32;;;;;;;12.43;2.08;;;;;;;2.72;65.81;100214.50;5046581;28;20055;-66
2022/01/05 01:51:57;;;;;;;16.33;2.75;;;;;;;2.72;65.64;100229.25;5027484;28;20025;-67
2022/01/05 01:54:22;;;;;;;9.77;1.75;;;;;;;2.72;65.89;100230.13;5026223;28;20039;-67
2022/01/05 01:56:48;;;;;;;22.33;2.28;;;;;;;2.82;65.42;100232.59;5008364;28;20048;-67
2022/01/05 01:59:13;;;;;;;17.75;2.83;;;;;;;2.85;65.77;100233.44;5046650;28;20486;-67
2022/01/05 02:01:42;;;;;;;15.35;3.35;;;;;;;2.90;65.85;100226.44;5046825;28;20475;-67
2022/01/05 02:04:07;;;;;;;13.23;2.05;;;;;;;2.87;65.95;100243.84;5047022;28;20071;-66
2022/01/05 02:06:32;;;;;;;10.15;1.73;;;;;;;2.94;65.86;100237.66;5046678;28;20577;-67
2022/01/05 02:09:00;;;;;;;19.83;2.45;;;;;;;2.99;66.31;100245.44;5047026;28;20394;-65
2022/01/05 02:11:26;;;;;;;8.82;2.17;;;;;;;3.07;66.25;100235.78;5024408;28;20037;-65
2022/01/05 02:13:52;;;;;;;10.95;2.30;;;;;;;3.05;66.04;100237.56;5046825;28;20040;-66
2022/01/05 02:16:19;;;;;;;18.08;3.00;;;;;;;3.16;66.07;100238.25;5058655;28;20029;-66
2022/01/05 02:19:00;;;;;;;17.17;2.47;;;;;;;3.23;66.08;100227.78;5055253;28;20079;-66
2022/01/05 02:21:31;;;;;;;8.70;2.17;;;;;;;3.24;66.38;100232.97;5044413;28;20511;-67
2022/01/05 02:23:56;;;;;;;13.23;2.28;;;;;;;3.23;66.07;100233.84;5019360;28;20053;-65
2022/01/05 02:26:21;;;;;;;17.27;2.60;;;;;;;3.22;66.35;100232.09;5026715;28;20109;-66
2022/01/05 02:28:47;;;;;;;19.90;2.38;;;;;;;3.18;66.51;100227.84;5025575;28;20029;-66
2022/01/05 02:31:12;;;;;;;16.95;2.40;;;;;;;3.25;66.58;100239.88;5046444;28;20047;-66
2022/01/05 02:33:39;;;;;;;16.48;3.03;;;;;;;3.29;66.84;100245.94;5028215;28;20033;-67
2022/01/05 02:36:05;;;;;;;22.42;3.17;;;;;;;3.36;67.33;100236.28;5046647;28;20052;-68
2022/01/05 02:38:30;;;;;;;16.60;2.95;;;;;;;3.37;67.92;100232.81;5047609;28;20100;-66
2022/01/05 02:40:56;;;;;;;15.93;2.90;;;;;;;3.35;68.44;100234.56;5045577;28;20163;-65
2022/01/05 02:43:21;;;;;;;18.52;2.50;;;;;;;3.22;68.78;100245.13;5036863;28;20036;-66
2022/01/05 02:45:47;;;;;;;14.55;2.63;;;;;;;3.17;68.45;100233.94;5025917;28;20028;-66
2022/01/05 02:48:12;;;;;;;14.65;2.33;;;;;;;3.27;67.31;100252.88;5062918;28;20033;-67
2022/01/05 02:50:38;;;;;;;12.75;2.22;;;;;;;3.33;67.74;100268.44;5066241;28;20025;-67
2022/01/05 02:53:03;;;;;;;16.88;2.53;;;;;;;3.32;67.33;100271.94;5047847;28;21060;-67
2022/01/05 02:55:28;;;;;;;12.77;2.00;;;;;;;3.36;66.61;100246.69;5061223;28;20035;-66
2022/01/05 02:57:54;;;;;;;17.25;3.15;;;;;;;3.42;67.39;100257.03;5045351;28;20021;-66
2022/01/05 03:00:19;;;;;;;15.25;2.55;;;;;;;3.46;67.54;100256.09;5045633;28;20033;-66
2022/01/05 03:02:45;;;;;;;22.75;4.55;;;;;;;3.46;67.88;100253.50;5050400;28;20036;-64
2022/01/05 03:05:10;;;;;;;15.68;2.50;;;;;;;3.43;68.45;100248.31;5018709;28;20025;-68
2022/01/05 03:07:39;;;;;;;11.18;2.83;;;;;;;3.40;68.73;100254.44;5025791;28;20031;-67
2022/01/05 03:10:06;;;;;;;22.52;2.83;;;;;;;3.39;68.62;100257.06;5040322;28;20497;-67
2022/01/05 03:12:31;;;;;;;24.25;2.50;;;;;;;3.34;68.77;100254.53;5044784;28;20091;-65
2022/01/05 03:14:57;;;;;;;15.80;2.60;;;;;;;3.35;68.70;100265.81;5030240;28;20029;-67
2022/01/05 03:17:22;;;;;;;17.10;2.75;;;;;;;3.27;69.34;100256.38;5033778;28;20056;-66
2022/01/05 03:19:47;;;;;;;9.82;2.28;;;;;;;3.32;69.11;100265.84;5034336;28;20025;-67
2022/01/05 03:22:13;;;;;;;13.48;2.45;;;;;;;3.31;69.47;100284.97;5026235;28;20115;-67
2022/01/05 03:24:38;;;;;;;12.15;2.47;;;;;;;3.33;69.33;100267.56;5032757;28;20025;-66
2022/01/05 03:27:04;;;;;;;21.02;2.50;;;;;;;3.32;69.68;100282.34;5044585;28;20614;-66
2022/01/05 03:29:29;;;;;;;23.35;2.45;;;;;;;3.33;69.81;100271.03;5046244;28;20116;-66
2022/01/05 03:31:55;;;;;;;15.40;2.88;;;;;;;3.41;69.54;100281.38;5044902;28;20025;-66
2022/01/05 03:34:20;;;;;;;19.17;2.80;;;;;;;3.45;69.80;100275.22;5046241;28;20116;-67
2022/01/05 03:36:46;;;;;;;24.75;3.90;;;;;;;3.49;69.95;100276.06;5045001;28;20021;-65
2022/01/05 03:39:11;;;;;;;20.95;3.17;;;;;;;3.45;69.98;100288.25;5046396;28;20115;-68
2022/01/05 03:41:36;;;;;;;19.83;2.95;;;;;;;3.52;69.26;100282.06;5026509;28;20480;-64
2022/01/05 03:44:03;;;;;;;19.67;4.00;;;;;;;3.57;69.24;100286.34;5043660;28;20056;-67
2022/01/05 03:46:29;;;;;;;15.70;2.55;;;;;;;3.62;69.11;100287.16;5037751;28;20034;-67
2022/01/05 03:48:54;;;;;;;21.25;3.15;;;;;;;3.61;68.90;100277.63;5029544;28;20021;-66
2022/01/05 03:51:19;;;;;;;24.65;3.28;;;;;;;3.67;68.88;100298.38;5029342;28;20438;-65
2022/01/05 03:53:45;;;;;;;18.50;2.78;;;;;;;3.72;68.75;100291.34;5034049;28;20028;-65
2022/01/05 03:56:10;;;;;;;13.77;2.92;;;;;;;3.75;68.63;100286.09;5031738;28;20475;-66
2022/01/05 03:58:35;;;;;;;17.15;2.20;;;;;;;3.81;68.85;100285.16;5048539;28;20013;-66
2022/01/05 04:01:01;;;;;;;21.55;3.15;;;;;;;3.84;68.74;100277.28;5049884;28;20182;-66
2022/01/05 04:03:26;;;;;;;21.90;4.22;;;;;;;3.84;68.84;100284.22;5060277;28;20455;-65
2022/01/05 04:05:51;;;;;;;16.38;2.65;;;;;;;3.81;68.65;100282.53;5069299;28;20032;-66
2022/01/05 04:08:17;;;;;;;13.27;2.42;;;;;;;3.82;67.73;100292.06;5068620;28;20028;-67
2022/01/05 04:10:42;;;;;;;18.42;2.67;;;;;;;3.81;68.14;100279.94;5069845;28;20016;-65
2022/01/05 04:13:07;;;;;;;12.15;2.47;;;;;;;3.88;68.24;100302.41;5049353;28;20052;-65
2022/01/05 04:15:34;;;;;;;9.75;2.17;;;;;;;3.86;67.07;100285.97;5042067;28;20619;-64
2022/01/05 04:17:59;;;;;;;16.30;2.58;;;;;;;3.91;66.56;100293.69;5040424;28;20120;-69
2022/01/05 04:20:25;;;;;;;18.98;2.47;;;;;;;3.93;67.16;100286.72;5045826;28;20017;-66
2022/01/05 04:22:50;;;;;;;20.17;3.25;;;;;;;3.95;66.84;100303.19;5033727;28;20061;-65
2022/01/05 04:25:15;;;;;;;16.80;3.17;;;;;;;4.00;67.47;100301.38;5028309;28;20088;-65
2022/01/05 04:27:41;;;;;;;13.13;2.50;;;;;;;3.94;67.70;100296.25;5029013;28;20033;-66
2022/01/05 04:30:09;;;;;;;23.48;2.95;;;;;;;3.91;67.65;100302.38;5019987;28;20429;-65
2022/01/05 04:32:35;;;;;;;9.73;2.20;;;;;;;3.86;66.77;100274.66;5049273;28;20036;-66
2022/01/05 04:35:01;;;;;;;18.08;2.42;;;;;;;3.78;67.06;100269.56;5047736;28;20040;-65
2022/01/05 04:37:26;;;;;;;17.15;2.33;;;;;;;3.78;67.34;100277.38;5031108;28;20029;-67
2022/01/05 04:39:52;;;;;;;12.63;2.83;;;;;;;3.64;68.18;100274.97;5048676;28;20100;-68
2022/01/05 04:42:17;;;;;;;20.73;3.05;;;;;;;3.60;68.48;100281.97;5047769;28;20048;-65
2022/01/05 04:44:43;;;;;;;9.68;2.40;;;;;;;3.58;68.49;100319.34;5046318;28;20127;-68
2022/01/05 04:47:09;;;;;;;17.05;3.25;;;;;;;3.57;68.69;100279.41;5038943;28;20104;-67
2022/01/05 04:49:35;;;;;;;12.73;1.90;;;;;;;3.62;68.67;100285.44;5048751;28;20479;-67
2022/01/05 04:52:00;;;;;;;23.73;3.25;;;;;;;3.65;68.77;100297.53;5047925;28;20051;-66
2022/01/05 04:54:25;;;;;;;16.27;2.88;;;;;;;3.71;68.84;100307.00;5048248;28;20071;-67
2022/01/05 04:56:50;;;;;;;18.85;2.58;;;;;;;3.75;68.97;100296.53;5039444;28;20075;-67
2022/01/05 04:59:16;;;;;;;28.73;4.30;;;;;;;3.81;69.12;100308.59;5029836;28;20075;-66
2022/01/05 05:01:41;;;;;;;19.27;2.78;;;;;;;3.83;68.99;100299.03;5041832;28;20039;-66
2022/01/05 05:04:07;;;;;;;14.85;3.33;;;;;;;3.89;68.90;100303.28;5017197;28;20030;-67
2022/01/05 05:06:32;;;;;;;15.75;2.83;;;;;;;3.83;68.74;100305.97;5018573;28;20079;-65
2022/01/05 05:08:57;;;;;;;13.45;2.40;;;;;;;3.88;68.79;100311.97;5027954;28;20025;-66
2022/01/05 05:11:23;;;;;;;11.98;2.58;;;;;;;3.80;69.06;100314.72;5026808;28;20038;-68
2022/01/05 05:13:48;;;;;;;21.70;3.10;;;;;;;3.85;68.68;100312.03;5010286;28;20036;-67
2022/01/05 05:16:14;;;;;;;18.42;2.45;;;;;;;3.84;68.57;100331.16;5040529;28;20068;-68
2022/01/05 05:18:39;;;;;;;17.60;3.38;;;;;;;3.84;68.50;100319.00;5018632;28;20010;-67
2022/01/05 05:21:04;;;;;;;16.98;3.40;;;;;;;3.82;68.23;100323.34;5027347;28;20072;-66
2022/01/05 05:23:30;;;;;;;15.98;3.33;;;;;;;3.81;68.10;100318.16;5036632;28;20028;-67
2022/01/05 05:25:55;;;;;;;16.45;2.33;;;;;;;3.85;68.00;100309.44;5040722;28;20024;-62
2022/01/05 05:28:20;;;;;;;16.15;2.53;;;;;;;3.88;67.84;100349.34;5016723;28;20056;-67
2022/01/05 05:30:46;;;;;;;15.40;2.38;;;;;;;3.86;67.73;100335.47;5058884;28;20463;-67
2022/01/05 05:33:11;;;;;;;15.55;2.45;;;;;;;3.83;68.13;100313.81;5046977;28;20025;-67
2022/01/05 05:35:39;;;;;;;13.45;2.15;;;;;;;3.75;68.47;100311.28;5033825;28;20495;-66
2022/01/05 05:38:04;;;;;;;17.60;2.53;;;;;;;3.70;68.83;100313.97;5039055;28;20071;-66
2022/01/05 05:40:30;;;;;;;19.42;3.00;;;;;;;3.70;69.02;100313.13;5036378;28;20021;-66
2022/01/05 05:42:55;;;;;;;18.15;3.13;;;;;;;3.69;68.90;100307.03;5026112;28;20464;-66
2022/01/05 05:45:20;;;;;;;20.50;3.25;;;;;;;3.66;69.51;100307.06;5031486;28;20055;-67
2022/01/05 05:47:46;;;;;;;23.75;2.85;;;;;;;3.62;69.42;100308.88;5038614;28;20017;-67
2022/01/05 05:50:11;;;;;;;16.40;2.10;;;;;;;3.62;69.54;100326.25;5047421;28;20029;-66
2022/01/05 05:52:37;;;;;;;17.10;2.42;;;;;;;3.68;69.19;100320.97;5047649;28;20029;-68
2022/01/05 05:55:03;;;;;;;22.60;3.55;;;;;;;3.70;69.62;100323.53;5047012;28;20021;-66
2022/01/05 05:57:28;;;;;;;21.52;2.90;;;;;;;3.73;70.02;100307.88;5046789;28;20024;-66
2022/01/05 05:59:54;;;;;;;31.23;3.03;;;;;;;3.78;70.19;100347.75;5028926;28;20025;-66
2022/01/05 06:02:19;;;;;;;13.57;2.88;;;;;;;3.84;70.01;100311.16;5047394;28;20029;-66
2022/01/05 06:04:44;;;;;;;22.95;2.83;;;;;;;3.92;69.67;100351.00;5046974;28;20586;-66
2022/01/05 06:07:10;;;;;;;23.45;2.88;;;;;;;4.02;69.71;100325.69;5029139;28;20475;-67
2022/01/05 06:09:35;;;;;;;18.60;2.70;;;;;;;4.00;69.75;100329.22;5046893;28;20427;-65
2022/01/05 06:12:00;;;;;;;13.52;2.75;;;;;;;4.07;69.85;100327.34;5046071;28;20052;-66
2022/01/05 06:14:26;;;;;;;16.58;2.42;;;;;;;4.09;69.54;100334.25;5039349;28;20035;-67
2022/01/05 06:16:51;;;;;;;16.52;2.65;;;;;;;4.15;69.17;100325.47;5034076;28;20087;-66
2022/01/05 06:19:16;;;;;;;13.18;3.00;;;;;;;4.22;69.56;100321.91;5046794;28;20395;-65
2022/01/05 06:21:44;;;;;;;14.23;3.00;;;;;;;4.23;69.56;100328.84;5045813;28;20028;-65
2022/01/05 06:24:10;;;;;;;17.40;3.10;;;;;;;4.23;70.15;100347.09;5045933;28;20745;-67
2022/01/05 06:26:35;;;;;;;28.98;4.18;;;;;;;4.28;70.37;100347.03;5044856;28;20104;-67
2022/01/05 06:29:00;;;;;;;20.48;3.33;;;;;;;4.34;70.27;100352.16;5045167;28;20033;-68
2022/01/05 06:31:26;;;;;;;23.55;3.47;;;;;;;4.33;70.25;100353.03;5048103;28;20048;-67
2022/01/05 06:33:51;;;;;;;22.52;3.67;;;;;;;4.35;70.66;100350.41;5048410;28;20482;-69
2022/01/05 06:36:16;;;;;;;24.60;4.03;;;;;;;4.37;70.68;100361.69;5065599;28;20540;-66
2022/01/05 06:38:42;;;;;;;18.63;3.80;;;;;;;4.41;70.54;100363.34;5067180;28;20055;-67
2022/01/05 06:41:07;;;;;;;18.50;3.70;;;;;;;4.37;70.68;100365.13;5063287;28;20052;-68
2022/01/05 06:43:34;;;;;;;20.80;3.25;;;;;;;4.43;70.38;100361.59;5054179;28;20491;-70
2022/01/05 06:45:59;;;;;;;18.45;3.67;;;;;;;4.48;70.77;100358.91;5045494;28;20415;-66
2022/01/05 06:48:25;;;;;;;21.13;3.42;;;;;;;4.42;70.89;100362.44;5045114;28;20023;-67
2022/01/05 06:50:50;;;;;;;35.05;3.05;;;;;;;4.46;71.07;100376.31;5046067;28;20563;-67
2022/01/05 06:53:16;;;;;;;28.55;4.18;;;;;;;4.41;71.50;100363.34;5045017;28;20045;-66
2022/01/05 06:55:41;;;;;;;19.05;3.50;;;;;;;4.42;71.43;100358.09;5027178;28;20036;-68
2022/01/05 06:58:06;;;;;;;14.57;3.90;;;;;;;4.41;71.73;100353.78;5045365;28;20096;-67
2022/01/05 07:00:32;;;;;;;21.35;4.18;;;;;;;4.43;71.21;100377.25;5045233;28;20529;-68
2022/01/05 07:02:58;;;;;;;26.92;3.08;;;;;;;4.45;71.00;100370.22;5046175;28;20025;-67
2022/01/05 07:05:24;;;;;;;26.30;3.78;;;;;;;4.47;71.30;100393.69;5044876;28;20379;-68
2022/01/05 07:07:49;;;;;;;20.70;3.75;;;;;;;4.46;70.99;100379.81;5045711;28;20079;-68
2022/01/05 07:10:15;;;;;;;25.88;4.78;;;;;;;4.50;71.06;100394.50;5044382;28;20144;-65
2022/01/05 07:12:40;;;;;;;26.25;3.20;;;;;;;4.51;71.00;100380.56;5045263;28;20037;-66
2022/01/05 07:15:07;;;;;;;29.15;3.97;;;;;;;4.48;71.29;100380.63;5044533;28;20063;-67
2022/01/05 07:17:33;;;;;;;27.77;3.67;;;;;;;4.50;71.33;100384.06;5048350;28;20476;-68
2022/01/05 07:19:58;;;;;;;18.98;3.60;;;;;;;4.53;71.56;100398.81;5064868;28;20025;-67
2022/01/05 07:22:24;;;;;;;19.10;3.55;;;;;;;4.51;71.63;100401.44;5069770;28;20059;-68
2022/01/05 07:24:49;;;;;;;20.42;3.22;;;;;;;4.50;71.83;100391.91;5037290;28;20074;-68
2022/01/05 07:27:15;;;;;;;22.98;3.33;;;;;;;4.52;71.72;100444.91;5049208;28;20112;-65
2022/01/05 07:29:40;;;;;;;25.73;4.00;;;;;;;4.58;71.88;100409.19;5049386;28;20415;-67
2022/01/05 07:32:06;;;;;;;19.88;3.33;;;;;;;4.55;71.91;100413.56;5049874;28;20472;-68
2022/01/05 07:34:31;;;;;;;18.02;2.85;;;;;;;4.63;71.96;100413.44;5053132;28;20034;-66
2022/01/05 07:36:56;;;;;;;21.30;2.83;;;;;;;4.62;72.01;100421.28;5043525;28;20029;-67
2022/01/05 07:39:22;;;;;;;15.13;3.35;;;;;;;4.63;72.13;100423.00;5049147;28;20475;-66
2022/01/05 07:41:47;;;;;;;17.30;3.15;;;;;;;4.61;72.28;100427.41;5034499;28;20029;-68
2022/01/05 07:44:13;;;;;;;21.00;3.40;;;;;;;4.67;72.17;100417.72;5039200;28;20024;-67
2022/01/05 07:46:38;;;;;;;16.08;3.03;;;;;;;4.67;72.42;100440.38;5043236;28;20055;-64
2022/01/05 07:49:05;;;;;;;22.77;3.00;;;;;;;4.67;73.09;100427.31;5039326;28;21324;-70
2022/01/05 07:51:30;;;;;;;25.65;4.05;;;;;;;4.62;73.83;100424.78;5041621;28;20033;-71
2022/01/05 07:53:56;;;;;;;20.75;3.30;;;;;;;4.58;73.88;100430.94;5036526;28;20079;-69
2022/01/05 07:56:21;;;;;;;21.95;3.72;;;;;;;4.61;74.04;100448.28;5036457;28;20029;-68
2022/01/05 07:58:48;;;;;;;23.42;3.55;;;;;;;4.59;73.83;100434.38;5038973;28;20056;-68
2022/01/05 08:01:13;;;;;;;28.38;3.60;;;;;;;4.55;74.45;100434.44;5040095;28;20021;-69
2022/01/05 08:03:39;;;;;;;17.42;3.08;;;;;;;4.63;74.24;100451.72;5038753;28;20261;-68
2022/01/05 08:06:04;;;;;;;21.80;3.28;;;;;;;4.65;73.97;100445.59;5037988;28;20452;-68
2022/01/05 08:08:30;;;;;;;24.65;3.30;;;;;;;4.62;74.91;100452.59;5037308;28;20022;-70
2022/01/05 08:10:56;;;;;;;19.60;2.90;;;;;;;4.61;75.53;100448.28;5041389;28;20021;-70
2022/01/05 08:13:22;;;;;;;25.85;3.88;;;;;;;4.49;76.25;100491.06;5032453;28;20041;-72
2022/01/05 08:15:48;;;;;;;28.83;4.30;;;;;;;4.39;77.60;100469.44;5048524;28;20029;-74
2022/01/05 08:18:13;;;;;;;28.25;3.72;;;;;;;4.30;77.69;100463.50;5049321;28;20431;-67
2022/01/05 08:20:38;;;;;;;16.95;2.80;;;;;;;4.20;78.15;100490.59;5046839;28;20024;-68
2022/01/05 08:23:05;;;;;;;23.35;3.25;;;;;;;4.14;78.76;100490.66;5027431;28;20063;-69
2022/01/05 08:25:30;;;;;;;29.98;4.85;;;;;;;4.09;79.43;100488.09;5045455;28;20813;-69
2022/01/05 08:27:55;;;;;;;19.75;3.17;;;;;;;4.09;79.78;100497.69;5028352;28;20468;-68
2022/01/05 08:30:25;;;;;;;29.33;4.35;;;;;;;4.07;80.25;100500.31;5047431;28;20036;-71
2022/01/05 08:32:52;;;;;;;24.85;3.55;;;;;;;4.01;80.28;100509.06;5046627;28;20061;-68
2022/01/05 08:35:20;;;;;;;28.58;5.25;;;;;;;4.00;80.43;100490.84;5030509;28;20040;-68
2022/01/05 08:37:47;;;;;;;26.58;3.63;;;;;;;4.02;80.22;100521.22;5044300;28;20510;-72
2022/01/05 08:40:14;;;;;;;24.30;3.15;;;;;;;4.07;80.09;100513.34;5048043;28;20028;-74
2022/01/05 08:42:40;;;;;;;19.13;3.35;;;;;;;4.06;80.39;100508.16;5028491;28;20033;-69
2022/01/05 08:45:07;;;;;;;21.08;3.50;;;;;;;4.07;80.75;100502.94;5044163;28;20048;-70
2022/01/05 08:47:32;;;;;;;18.38;3.45;;;;;;;4.08;80.73;100501.16;5036823;28;20566;-71
2022/01/05 08:49:58;;;;;;;14.48;3.03;;;;;;;4.09;80.78;100508.13;5035536;28;20105;-70
2022/01/05 08:52:24;;;;;;;25.30;3.70;;;;;;;4.13;81.02;100515.88;5037161;28;20124;-69
2022/01/05 08:54:49;;;;;;;19.13;3.10;;;;;;;4.13;80.85;100520.25;5041803;28;20103;-67
2022/01/05 08:57:15;;;;;;;23.83;3.63;;;;;;;4.13;81.07;100521.09;5031892;28;20047;-65
2022/01/05 08:59:41;;;;;;;29.73;4.78;;;;;;;4.17;81.11;100521.91;5028192;28;20507;-67
2022/01/05 09:02:06;;;;;;;30.33;3.67;;;;;;;4.21;80.99;100518.38;5039626;28;20108;-68
2022/01/05 09:04:32;;;;;;;32.38;3.67;;;;;;;4.25;80.50;100527.88;5039565;28;20051;-68
2022/01/05 09:06:57;;;;;;;21.42;4.72;;;;;;;4.23;81.56;100527.06;5045514;28;20111;-71
2022/01/05 09:09:24;;;;;;;32.25;4.32;;;;;;;4.27;81.37;100513.09;5044167;28;20457;-74
2022/01/05 09:11:49;;;;;;;22.15;3.63;;;;;;;4.30;81.27;100522.63;5030781;28;20045;-75
2022/01/05 09:14:14;;;;;;;28.27;3.95;;;;;;;4.34;81.01;100559.97;5027212;28;20026;-74
2022/01/05 09:16:40;;;;;;;35.42;4.07;;;;;;;4.36;80.72;100548.63;5039909;28;20525;-75
2022/01/05 09:19:05;;;;;;;23.73;3.95;;;;;;;4.41;80.77;100548.56;5027878;28;20053;-74
2022/01/05 09:21:30;;;;;;;33.92;4.82;;;;;;;4.39;80.81;100538.16;5029669;28;20064;-76
2022/01/05 09:23:56;;;;;;;36.78;5.15;;;;;;;4.43;80.67;100578.13;5048223;28;20094;-75
2022/01/05 09:26:21;;;;;;;34.25;4.45;;;;;;;4.50;80.28;100569.34;5067481;28;20024;-73
2022/01/05 09:28:46;;;;;;;39.28;5.07;;;;;;;4.52;80.04;100541.47;5067010;28;20538;-67
2022/01/05 09:31:12;;;;;;;22.92;4.47;;;;;;;4.54;79.86;100531.88;5068074;28;20088;-74
2022/01/05 09:33:38;;;;;;;38.60;5.03;;;;;;;4.62;79.23;100543.94;5058592;28;20036;-73
2022/01/05 09:36:11;;;;;;;31.75;4.60;;;;;;;4.70;78.81;100539.50;5028160;28;20045;-74
2022/01/05 09:43:54;;;;;;;23.08;3.92;;;;;;;4.79;78.48;100547.19;5011970;28;20048;-74
2022/01/05 09:46:42;;;;;;;23.88;3.97;;;;;;;4.86;78.44;100573.19;5003685;28;20377;-74
2022/01/05 09:49:13;;;;;;;27.55;4.22;;;;;;;4.94;78.40;100571.34;5013845;28;20025;-73
2022/01/05 09:51:41;;;;;;;27.10;4.28;;;;;;;4.96;77.69;100580.00;5016971;28;20026;-75
2022/01/05 09:54:07;;;;;;;23.90;4.28;;;;;;;5.01;77.74;100609.53;5018645;28;20184;-73
2022/01/05 09:56:34;;;;;;;21.27;3.00;;;;;;;5.04;77.56;100604.28;5012098;28;20099;-75
2022/01/05 09:59:02;;;;;;;23.30;3.47;;;;;;;5.05;76.87;100660.84;5020012;28;20028;-72
2022/01/05 10:01:32;;;;;;;28.73;4.40;;;;;;;5.04;76.85;100598.19;5013940;28;20629;-73
2022/01/05 10:03:59;;;;;;;21.63;3.25;;;;;;;5.08;77.23;100592.03;4985147;28;20045;-73
2022/01/05 10:06:24;;;;;;;22.45;3.22;;;;;;;5.08;77.05;100609.47;4988393;28;20517;-73
2022/01/05 10:08:50;;;;;;;27.60;4.55;;;;;;;5.14;76.31;100604.13;5021940;28;20069;-72
2022/01/05 10:11:15;;;;;;;23.85;3.63;;;;;;;5.21;76.70;100605.75;5001804;28;20021;-71
2022/01/05 10:13:41;;;;;;;27.20;3.80;;;;;;;5.26;76.24;100603.06;5003952;28;20030;-72
2022/01/05 10:16:07;;;;;;;24.15;4.68;;;;;;;5.27;76.86;100618.72;5009769;28;20025;-71
2022/01/05 10:18:40;;;;;;;22.85;3.13;;;;;;;5.26;77.00;100635.28;5022614;28;20036;-72
2022/01/05 10:21:06;;;;;;;27.02;3.00;;;;;;;5.27;77.39;100631.78;5013819;28;20059;-73
2022/01/05 10:23:33;;;;;;;32.20;4.15;;;;;;;5.23;76.69;100645.78;5013368;28;20078;-72
2022/01/05 10:26:30;;;;;;;32.33;4.07;;;;;;;5.19;76.76;100644.13;5022098;28;20028;-73
2022/01/05 10:28:57;;;;;;;28.05;4.43;;;;;;;5.09;77.09;100653.81;5002922;28;20071;-65
2022/01/05 10:31:26;;;;;;;27.90;3.58;;;;;;;4.98;78.31;100661.81;5015668;28;20028;-63
2022/01/05 10:33:51;;;;;;;25.63;4.68;;;;;;;4.92;78.67;100683.66;5014378;28;20488;-63
2022/01/05 10:36:17;;;;;;;32.47;4.03;;;;;;;4.89;78.06;100680.22;5011928;28;20033;-61
2022/01/05 10:38:56;;;;;;;16.75;3.15;;;;;;;4.88;79.28;100691.53;5016040;28;20586;-60
2022/01/05 10:41:25;;;;;;;25.17;4.53;;;;;;;4.79;79.92;100709.03;5019966;28;20124;-67
2022/01/05 10:44:10;;;;;;;37.22;5.03;;;;;;;4.78;80.11;100722.97;5020975;28;20809;-63
2022/01/05 10:46:38;;;;;;;27.25;3.65;;;;;;;4.83;80.74;100675.94;5018802;28;20032;-63
2022/01/05 10:49:04;;;;;;;31.38;3.70;;;;;;;4.82;80.82;100681.16;5020797;28;20024;-64
2022/01/05 10:51:31;;;;;;;25.00;3.80;;;;;;;4.84;80.29;100703.75;5022552;28;20021;-64
2022/01/05 10:54:10;;;;;;;27.75;3.78;;;;;;;4.89;79.66;100699.38;5018453;28;20741;-65
2022/01/05 10:56:35;;;;;;;;;;;;;;;4.90;79.90;100679.31;5020136;28;20051;-64
2022/01/05 10:59:01;;;;;;;16.95;3.63;;;;;;;4.91;80.21;100697.56;5021408;28;20418;-64
2022/01/05 11:01:30;;;;;;;33.08;3.97;;;;;;;4.98;79.90;100689.66;5003734;28;20021;-65
2022/01/05 11:03:56;;;;;;;34.22;4.15;;;;;;;5.01;78.86;100672.22;5021799;28;20380;-61
2022/01/05 11:06:21;;;;;;;41.17;5.30;;;;;;;5.12;79.35;100724.28;5025280;28;20477;-64
2022/01/05 11:09:00;;;;;;;22.92;3.20;;;;;;;5.16;79.10;100694.66;5022206;28;20029;-62
2022/01/05 11:11:39;;;;;;;33.08;3.97;;;;;;;5.16;79.59;100710.34;5021117;28;20033;-65
2022/01/05 11:14:19;;;;;;;28.10;4.53;;;;;;;5.20;79.95;100687.63;5022752;28;20557;-64
2022/01/05 11:16:47;;;;;;;34.38;4.15;;;;;;;5.26;79.21;100677.09;5038717;28;20094;-62
2022/01/05 11:19:18;;;;;;;25.30;3.67;;;;;;;5.33;78.50;100710.97;5023225;28;20029;-62
2022/01/05 11:22:05;;;;;;;28.65;4.25;;;;;;;5.45;78.67;100679.47;5022570;28;20036;-62
2022/01/05 11:24:34;;;;;;;24.23;3.90;;;;;;;5.52;77.83;100677.59;5021699;28;20024;-62
2022/01/05 11:27:01;;;;;;;31.23;4.03;;;;;;;5.53;77.63;100672.34;5021784;28;20025;-62